createdAt,value
2019-04-27T00:00:43.363Z,96.50
2019-04-27T00:03:16.632Z,96.40
2019-04-27T00:05:53.434Z,96.50
2019-04-27T00:08:35.182Z,96.40
2019-04-27T00:11:16.927Z,96.40
2019-04-27T00:13:46.856Z,96.50
2019-04-27T00:16:50.578Z,96.50
2019-04-27T00:19:27.340Z,96.60
2019-04-27T00:22:18.413Z,96.60
2019-04-27T00:24:48.176Z,96.40
2019-04-27T00:27:18.164Z,96.60
2019-04-27T00:29:47.989Z,96.60
2019-04-27T00:32:18.624Z,96.60
2019-04-27T00:34:48.773Z,96.70
2019-04-27T00:37:38.935Z,96.50
2019-04-27T00:40:14.661Z,96.70
2019-04-27T00:42:44.826Z,96.90
2019-04-27T00:45:15.196Z,96.90
2019-04-27T00:47:56.409Z,96.90
2019-04-27T00:50:16.791Z,97.00
2019-04-27T00:52:46.604Z,96.90
2019-04-27T00:55:16.516Z,97.00
2019-04-27T00:58:04.696Z,97.10
2019-04-27T01:00:59.952Z,97.50
2019-04-27T01:03:34.312Z,97.50
2019-04-27T01:06:05.746Z,98.00
2019-04-27T01:08:35.573Z,97.70
2019-04-27T01:11:05.787Z,98.80
2019-04-27T01:13:35.542Z,98.50
2019-04-27T01:16:05.481Z,98.20
2019-04-27T01:18:35.304Z,97.80
2019-04-27T01:21:05.312Z,97.80
2019-04-27T01:23:35.405Z,97.80
2019-04-27T01:26:21.907Z,96.50
2019-04-27T01:28:57.093Z,96.80
2019-04-27T01:31:27.098Z,97.00
2019-04-27T01:33:58.955Z,96.90
2019-04-27T01:36:29.202Z,96.80
2019-04-27T01:38:59.532Z,97.20
2019-04-27T01:41:29.652Z,97.20
2019-04-27T01:43:59.507Z,97.10
2019-04-27T01:46:29.648Z,97.10
2019-04-27T01:48:59.823Z,97.30
2019-04-27T01:51:29.611Z,97.50
2019-04-27T01:53:59.631Z,97.60
2019-04-27T01:56:29.496Z,97.70
2019-04-27T01:58:59.708Z,97.70
2019-04-27T02:01:46.940Z,97.90
2019-04-27T02:04:22.007Z,98.10
2019-04-27T02:06:53.816Z,98.10
2019-04-27T02:09:24.293Z,97.90
2019-04-27T02:11:54.385Z,98.10
2019-04-27T02:14:24.567Z,98.50
2019-04-27T02:16:54.831Z,98.50
2019-04-27T02:19:24.887Z,98.60
2019-04-27T02:21:54.635Z,98.30
2019-04-27T02:24:24.428Z,98.50
2019-04-27T02:26:54.323Z,98.50
2019-04-27T02:29:39.113Z,98.70
2019-04-27T02:32:20.155Z,98.40
2019-04-27T02:34:53.657Z,98.40
2019-04-27T02:37:23.658Z,98.00
2019-04-27T02:39:53.440Z,98.20
2019-04-27T02:42:24.911Z,98.10
2019-04-27T02:44:55.176Z,97.90
2019-04-27T02:47:25.281Z,98.00
2019-04-27T02:49:55.122Z,98.00
2019-04-27T02:52:36.082Z,97.80
2019-04-27T02:55:09.273Z,97.70
2019-04-27T02:57:39.910Z,97.80
2019-04-27T03:00:10.901Z,97.70
2019-04-27T03:02:54.746Z,97.50
2019-04-27T03:05:26.261Z,97.40
2019-04-27T03:07:56.262Z,97.50
2019-04-27T03:10:29.738Z,97.60
2019-04-27T03:13:20.133Z,97.50
2019-04-27T03:16:21.533Z,97.30
2019-04-27T03:19:14.960Z,97.20
2019-04-27T03:22:05.382Z,97.10
2019-04-27T03:24:53.402Z,96.90
2019-04-27T03:27:24.865Z,96.80
2019-04-27T03:29:54.763Z,96.60
2019-04-27T03:32:24.515Z,96.50
2019-04-27T03:34:54.797Z,96.90
2019-04-27T03:37:24.694Z,97.30
2019-04-27T03:39:54.993Z,97.40
2019-04-27T03:42:24.986Z,97.50
2019-04-27T03:44:56.051Z,97.40
2019-04-27T03:47:25.946Z,97.50
2019-04-27T03:49:59.863Z,97.60
2019-04-27T03:52:34.763Z,97.80
2019-04-27T03:55:14.382Z,97.70
2019-04-27T03:57:53.252Z,98.00
2019-04-27T04:00:24.845Z,97.90
2019-04-27T04:02:54.944Z,97.80
2019-04-27T04:05:25.071Z,97.80
2019-04-27T04:07:55.078Z,97.80
2019-04-27T04:10:29.184Z,97.70
2019-04-27T04:13:12.524Z,97.60
2019-04-27T04:15:51.876Z,98.20
2019-04-27T04:18:21.304Z,97.90
2019-04-27T04:20:51.165Z,98.00
2019-04-27T04:23:21.037Z,97.80
2019-04-27T04:25:52.560Z,97.80
2019-04-27T04:28:22.468Z,97.70
2019-04-27T04:30:52.224Z,97.60
2019-04-27T04:33:22.048Z,97.40
2019-04-27T04:35:52.141Z,97.30
2019-04-27T04:38:22.215Z,97.10
2019-04-27T04:40:59.423Z,97.10
2019-04-27T04:43:39.786Z,97.10
2019-04-27T04:46:39.376Z,96.90
2019-04-27T04:49:09.436Z,97.00
2019-04-27T04:51:40.278Z,97.00
2019-04-27T04:54:10.480Z,96.90
2019-04-27T04:56:40.308Z,96.70
2019-04-27T04:59:10.493Z,96.80
2019-04-27T05:01:40.329Z,96.70
2019-04-27T05:04:10.203Z,96.80
2019-04-27T05:06:40.096Z,97.00
2019-04-27T05:09:09.909Z,97.10
2019-04-27T05:11:39.862Z,97.10
2019-04-27T05:14:09.933Z,97.10
2019-04-27T05:16:39.850Z,97.30
2019-04-27T05:19:11.323Z,97.40
2019-04-27T05:21:41.568Z,97.50
2019-04-27T05:24:11.419Z,97.40
2019-04-27T05:26:41.244Z,97.40
2019-04-27T05:29:11.186Z,97.60
2019-04-27T05:31:41.104Z,97.60
2019-04-27T05:34:10.929Z,97.80
2019-04-27T05:36:48.147Z,97.80
2019-04-27T05:39:13.336Z,98.20
2019-04-27T05:41:43.407Z,98.20
2019-04-27T05:44:48.985Z,98.10
2019-04-27T05:47:29.253Z,98.10
2019-04-27T05:50:09.396Z,97.90
2019-04-27T05:52:40.988Z,97.70
2019-04-27T05:55:11.077Z,97.70
2019-04-27T05:57:40.866Z,97.50
2019-04-27T06:00:13.119Z,97.50
2019-04-27T06:02:43.242Z,97.50
2019-04-27T06:05:13.420Z,97.40
2019-04-27T06:07:43.465Z,97.40
2019-04-27T06:10:14.175Z,97.50
2019-04-27T06:12:43.945Z,97.80
2019-04-27T06:15:14.301Z,97.90
2019-04-27T06:17:44.094Z,97.80
2019-04-27T06:20:14.232Z,97.80
2019-04-27T06:22:44.095Z,97.70
2019-04-27T06:25:14.187Z,97.50
2019-04-27T06:27:44.077Z,97.30
2019-04-27T06:30:14.126Z,97.10
2019-04-27T06:32:43.975Z,97.20
2019-04-27T06:35:14.137Z,97.00
2019-04-27T06:37:43.926Z,96.80
2019-04-27T06:40:13.931Z,96.60
2019-04-27T06:42:43.728Z,96.60
2019-04-27T06:45:13.805Z,96.50
2019-04-27T06:47:43.660Z,96.40
2019-04-27T06:50:13.512Z,96.30
2019-04-27T06:52:43.602Z,96.10
2019-04-27T06:55:13.633Z,96.30
2019-04-27T06:57:43.476Z,95.90
2019-04-27T07:00:13.520Z,95.70
2019-04-27T07:02:43.505Z,95.70
2019-04-27T07:05:13.552Z,96.00
2019-04-27T07:07:43.319Z,95.70
2019-04-27T07:10:13.372Z,95.60
2019-04-27T07:12:43.163Z,94.90
2019-04-27T07:15:15.438Z,94.80
2019-04-27T07:17:44.654Z,94.80
2019-04-27T07:20:14.593Z,95.10
2019-04-27T07:22:45.065Z,95.50
2019-04-27T07:25:15.048Z,95.20
2019-04-27T07:27:44.824Z,93.20
2019-04-27T07:30:14.872Z,92.90
2019-04-27T07:32:44.642Z,94.20
2019-04-27T07:35:14.684Z,93.70
2019-04-27T07:37:44.494Z,92.90
2019-04-27T07:40:14.356Z,91.40
2019-04-27T07:42:46.075Z,93.30
2019-04-27T07:45:21.899Z,93.30
2019-04-27T07:47:51.783Z,93.40
2019-04-27T07:50:21.516Z,91.30
2019-04-27T07:52:51.581Z,90.80
2019-04-27T07:55:21.359Z,92.10
2019-04-27T07:57:51.171Z,91.70
2019-04-27T08:00:21.137Z,92.60
2019-04-27T08:02:50.893Z,90.00
2019-04-27T08:05:20.704Z,90.60
2019-04-27T08:07:50.568Z,91.30
2019-04-27T08:10:20.345Z,88.60
2019-04-27T08:12:50.388Z,84.40
2019-04-27T08:15:20.591Z,86.60
2019-04-27T08:17:50.366Z,88.60
2019-04-27T08:20:21.208Z,86.70
2019-04-27T08:22:51.276Z,87.90
2019-04-27T08:25:23.291Z,85.60
2019-04-27T08:28:00.279Z,85.00
2019-04-27T08:30:45.962Z,84.80
2019-04-27T08:33:16.017Z,85.60
2019-04-27T08:35:45.897Z,85.20
2019-04-27T08:38:15.880Z,86.40
2019-04-27T08:40:45.744Z,83.30
2019-04-27T08:43:15.910Z,83.10
2019-04-27T08:45:45.965Z,83.00
2019-04-27T08:48:16.724Z,85.30
2019-04-27T08:50:46.475Z,82.20
2019-04-27T08:53:16.546Z,83.00
2019-04-27T08:55:46.386Z,84.70
2019-04-27T08:58:16.392Z,81.50
2019-04-27T09:00:46.648Z,83.50
2019-04-27T09:03:16.465Z,82.60
2019-04-27T09:05:46.283Z,80.20
2019-04-27T09:08:41.513Z,82.90
2019-04-27T09:11:20.774Z,83.20
2019-04-27T09:13:56.331Z,79.70
2019-04-27T09:16:41.728Z,81.00
2019-04-27T09:19:20.317Z,83.40
2019-04-27T09:22:12.376Z,76.00
2019-04-27T09:24:34.301Z,81.30
2019-04-27T09:27:04.603Z,80.80
2019-04-27T09:29:34.450Z,80.40
2019-04-27T09:32:05.053Z,79.40
2019-04-27T09:34:36.514Z,77.40
2019-04-27T09:37:06.432Z,80.40
2019-04-27T09:39:36.560Z,76.90
2019-04-27T09:42:07.076Z,74.70
2019-04-27T09:44:37.241Z,77.30
2019-04-27T09:47:07.460Z,76.10
2019-04-27T09:49:38.493Z,74.10
2019-04-27T09:52:08.535Z,75.10
2019-04-27T09:54:38.297Z,69.30
2019-04-27T09:57:08.173Z,68.40
2019-04-27T09:59:39.792Z,66.20
2019-04-27T10:02:10.072Z,67.50
2019-04-27T10:04:39.880Z,69.50
2019-04-27T10:07:09.663Z,66.20
2019-04-27T10:09:39.447Z,65.40
2019-04-27T10:12:10.921Z,65.70
2019-04-27T10:14:40.652Z,68.00
2019-04-27T10:17:10.473Z,65.00
2019-04-27T10:19:40.524Z,67.00
2019-04-27T10:22:11.443Z,63.00
2019-04-27T10:24:41.212Z,63.10
2019-04-27T10:27:11.230Z,66.90
2019-04-27T10:29:40.978Z,65.30
2019-04-27T10:32:11.689Z,62.00
2019-04-27T10:34:41.804Z,62.90
2019-04-27T10:37:11.620Z,64.60
2019-04-27T10:39:41.443Z,65.10
2019-04-27T10:42:11.510Z,58.50
2019-04-27T10:44:41.385Z,60.30
2019-04-27T10:47:11.140Z,64.60
2019-04-27T10:49:41.223Z,63.70
2019-04-27T10:52:11.256Z,58.90
2019-04-27T10:54:41.017Z,57.20
2019-04-27T10:57:10.756Z,60.10
2019-04-27T10:59:40.516Z,60.60
2019-04-27T11:02:10.390Z,60.80
2019-04-27T11:04:47.691Z,57.60
2019-04-27T11:07:19.894Z,59.00
2019-04-27T11:09:50.033Z,57.40
2019-04-27T11:12:19.943Z,57.20
2019-04-27T11:14:49.750Z,59.40
2019-04-27T11:17:19.921Z,58.00
2019-04-27T11:19:50.225Z,58.30
2019-04-27T11:22:20.053Z,58.90
2019-04-27T11:24:50.248Z,59.60
2019-04-27T11:27:19.975Z,57.80
2019-04-27T11:29:49.746Z,58.40
2019-04-27T11:32:19.648Z,56.80
2019-04-27T11:35:17.533Z,59.60
2019-04-27T11:37:47.542Z,59.70
2019-04-27T11:40:19.818Z,57.20
2019-04-27T11:42:49.802Z,57.20
2019-04-27T11:45:19.782Z,58.30
2019-04-27T11:47:49.523Z,59.40
2019-04-27T11:50:19.713Z,59.00
2019-04-27T11:52:49.804Z,55.40
2019-04-27T11:55:20.030Z,57.00
2019-04-27T11:57:49.893Z,55.10
2019-04-27T12:00:22.314Z,56.70
2019-04-27T12:02:52.251Z,57.20
2019-04-27T12:05:22.280Z,55.60
2019-04-27T12:07:52.172Z,59.00
2019-04-27T12:10:22.047Z,55.20
2019-04-27T12:12:51.763Z,56.70
2019-04-27T12:15:21.895Z,53.90
2019-04-27T12:17:51.684Z,56.00
2019-04-27T12:20:21.892Z,56.20
2019-04-27T12:22:52.003Z,55.80
2019-04-27T12:25:21.875Z,55.30
2019-04-27T12:27:59.023Z,55.10
2019-04-27T12:30:38.992Z,54.00
2019-04-27T12:33:08.912Z,53.80
2019-04-27T12:35:38.980Z,56.40
2019-04-27T12:38:09.143Z,55.90
2019-04-27T12:40:39.204Z,55.30
2019-04-27T12:43:09.014Z,54.50
2019-04-27T12:45:42.023Z,56.30
2019-04-27T12:48:10.446Z,55.60
2019-04-27T12:50:40.343Z,55.90
2019-04-27T12:53:15.129Z,56.20
2019-04-27T12:55:52.951Z,57.00
2019-04-27T12:58:30.468Z,56.30
2019-04-27T13:01:00.977Z,54.70
2019-04-27T13:03:30.793Z,55.70
2019-04-27T13:06:00.624Z,55.40
2019-04-27T13:08:30.420Z,57.10
2019-04-27T13:11:00.187Z,58.50
2019-04-27T13:13:29.962Z,59.00
2019-04-27T13:16:00.749Z,56.00
2019-04-27T13:18:30.463Z,56.50
2019-04-27T13:21:00.195Z,56.40
2019-04-27T13:23:30.042Z,55.90
2019-04-27T13:25:59.799Z,55.40
2019-04-27T13:28:29.587Z,55.90
2019-04-27T13:30:59.420Z,56.70
2019-04-27T13:33:29.471Z,55.70
2019-04-27T13:35:59.245Z,57.30
2019-04-27T13:38:28.985Z,55.70
2019-04-27T13:41:09.475Z,55.50
2019-04-27T13:43:41.245Z,54.90
2019-04-27T13:46:26.469Z,55.40
2019-04-27T13:49:14.256Z,55.60
2019-04-27T13:52:08.908Z,55.40
2019-04-27T13:54:38.748Z,56.10
2019-04-27T13:57:08.920Z,56.30
2019-04-27T13:59:38.810Z,55.00
2019-04-27T14:02:09.143Z,54.00
2019-04-27T14:04:38.883Z,54.60
2019-04-27T14:07:09.159Z,56.80
2019-04-27T14:09:39.316Z,57.20
2019-04-27T14:12:16.345Z,56.50
2019-04-27T14:14:46.124Z,56.60
2019-04-27T14:17:15.903Z,57.40
2019-04-27T14:19:48.100Z,59.60
2019-04-27T14:22:18.249Z,63.40
2019-04-27T14:24:48.805Z,70.80
2019-04-27T14:27:20.525Z,81.10
2019-04-27T14:29:50.285Z,83.00
2019-04-27T14:32:20.017Z,84.50
2019-04-27T14:34:50.384Z,85.20
2019-04-27T14:37:20.451Z,85.60
2019-04-27T14:39:50.321Z,84.90
2019-04-27T14:42:20.119Z,86.70
2019-04-27T14:44:50.240Z,86.60
2019-04-27T14:47:19.981Z,85.60
2019-04-27T14:49:49.725Z,84.80
2019-04-27T14:52:19.455Z,89.80
2019-04-27T14:54:50.792Z,88.40
2019-04-27T14:57:21.217Z,88.70
2019-04-27T14:59:50.958Z,88.30
2019-04-27T15:02:20.788Z,86.50
2019-04-27T15:04:50.689Z,88.70
2019-04-27T15:07:20.567Z,87.20
2019-04-27T15:09:54.455Z,90.60
2019-04-27T15:12:24.502Z,87.30
2019-04-27T15:14:57.174Z,89.50
2019-04-27T15:17:26.664Z,87.30
2019-04-27T15:20:01.586Z,85.20
2019-04-27T15:22:32.699Z,89.40
2019-04-27T15:25:13.563Z,88.20
2019-04-27T15:27:42.357Z,88.40
2019-04-27T15:30:18.681Z,89.60
2019-04-27T15:33:10.446Z,86.40
2019-04-27T15:35:45.253Z,88.30
2019-04-27T15:38:20.517Z,85.90
2019-04-27T15:41:09.323Z,86.50
2019-04-27T15:43:40.383Z,86.30
2019-04-27T15:46:10.570Z,88.60
2019-04-27T15:48:40.355Z,88.10
2019-04-27T15:51:17.426Z,86.20
2019-04-27T15:53:46.001Z,84.90
2019-04-27T15:56:14.290Z,84.80
2019-04-27T15:58:44.179Z,84.80
2019-04-27T16:01:21.384Z,84.20
2019-04-27T16:03:52.294Z,83.50
2019-04-27T16:06:22.177Z,84.50
2019-04-27T16:08:51.894Z,84.10
2019-04-27T16:11:21.728Z,86.30
2019-04-27T16:13:51.455Z,84.90
2019-04-27T16:16:24.586Z,84.00
2019-04-27T16:18:52.738Z,84.20
2019-04-27T16:21:22.922Z,83.80
2019-04-27T16:23:52.691Z,83.80
2019-04-27T16:26:22.531Z,83.80
2019-04-27T16:28:53.465Z,85.10
2019-04-27T16:31:24.838Z,83.90
2019-04-27T16:33:59.101Z,85.20
2019-04-27T16:36:28.708Z,84.10
2019-04-27T16:39:03.868Z,84.60
2019-04-27T16:41:37.357Z,85.90
2019-04-27T16:44:06.728Z,85.40
2019-04-27T16:46:41.240Z,85.30
2019-04-27T16:49:13.784Z,86.00
2019-04-27T16:51:40.672Z,85.70
2019-04-27T16:54:17.311Z,85.00
2019-04-27T16:56:45.632Z,84.30
2019-04-27T16:59:38.770Z,84.40
2019-04-27T17:01:46.674Z,85.20
2019-04-27T17:04:17.399Z,84.90
2019-04-27T17:06:49.323Z,84.60
2019-04-27T17:09:19.213Z,83.90
2019-04-27T17:11:50.143Z,84.90
2019-04-27T17:14:36.400Z,85.20
2019-04-27T17:17:33.850Z,85.20
2019-04-27T17:20:04.748Z,84.60
2019-04-27T17:22:34.833Z,84.00
2019-04-27T17:25:05.126Z,83.90
2019-04-27T17:27:43.912Z,85.50
2019-04-27T17:30:14.205Z,84.80
2019-04-27T17:32:56.042Z,85.00
2019-04-27T17:35:25.763Z,84.90
2019-04-27T17:37:55.613Z,85.00
2019-04-27T17:40:29.840Z,84.60
2019-04-27T17:42:59.740Z,84.40
2019-04-27T17:45:30.478Z,83.60
2019-04-27T17:48:06.833Z,83.70
2019-04-27T17:50:32.397Z,84.60
2019-04-27T17:53:02.187Z,84.30
2019-04-27T17:55:32.013Z,84.10
2019-04-27T17:58:05.335Z,84.70
2019-04-27T18:00:43.150Z,84.60
2019-04-27T18:03:08.265Z,84.10
2019-04-27T18:05:39.023Z,86.60
2019-04-27T18:08:08.888Z,85.50
2019-04-27T18:10:38.623Z,85.70
2019-04-27T18:13:08.675Z,85.50
2019-04-27T18:15:38.962Z,86.70
2019-04-27T18:18:27.146Z,86.20
2019-04-27T18:20:57.229Z,86.40
2019-04-27T18:23:29.119Z,86.50
2019-04-27T18:26:07.420Z,86.50
2019-04-27T18:28:38.688Z,85.70
2019-04-27T18:31:16.085Z,88.70
2019-04-27T18:33:44.804Z,87.70
2019-04-27T18:36:14.838Z,88.40
2019-04-27T18:38:44.904Z,89.60
2019-04-27T18:41:15.170Z,89.40
2019-04-27T18:43:50.625Z,89.70
2019-04-27T18:46:21.971Z,90.90
2019-04-27T18:49:08.943Z,87.90
2019-04-27T18:51:44.759Z,89.30
2019-04-27T18:54:14.672Z,90.30
2019-04-27T18:56:44.650Z,90.60
2019-04-27T18:59:14.792Z,90.90
2019-04-27T19:01:44.759Z,91.40
2019-04-27T19:04:14.715Z,91.20
2019-04-27T19:06:44.573Z,91.70
2019-04-27T19:09:18.490Z,91.50
2019-04-27T19:11:56.241Z,91.70
2019-04-27T19:14:19.873Z,92.10
2019-04-27T19:16:49.966Z,92.10
2019-04-27T19:19:20.000Z,91.30
2019-04-27T19:21:49.745Z,91.20
2019-04-27T19:24:19.649Z,91.70
2019-04-27T19:27:17.673Z,90.90
2019-04-27T19:29:48.542Z,92.20
2019-04-27T19:32:19.548Z,92.30
2019-04-27T19:34:49.289Z,91.80
2019-04-27T19:37:19.109Z,92.10
2019-04-27T19:39:49.813Z,92.60
2019-04-27T19:42:20.225Z,93.10
2019-04-27T19:44:50.368Z,92.90
2019-04-27T19:47:20.136Z,92.70
2019-04-27T19:49:50.037Z,93.20
2019-04-27T19:52:22.562Z,93.50
2019-04-27T19:54:51.304Z,94.00
2019-04-27T19:57:31.738Z,93.10
2019-04-27T19:59:55.677Z,93.30
2019-04-27T20:02:25.532Z,93.40
2019-04-27T20:05:03.466Z,94.80
2019-04-27T20:07:35.371Z,93.70
2019-04-27T20:10:08.787Z,93.80
2019-04-27T20:12:38.620Z,94.80
2019-04-27T20:15:08.632Z,94.90
2019-04-27T20:17:38.453Z,93.90
2019-04-27T20:20:08.412Z,94.80
2019-04-27T20:22:38.178Z,94.90
2019-04-27T20:25:09.138Z,95.10
2019-04-27T20:27:46.982Z,95.40
2019-04-27T20:30:12.621Z,95.40
2019-04-27T20:32:43.806Z,94.80
2019-04-27T20:35:13.880Z,95.10
2019-04-27T20:37:43.831Z,95.40
2019-04-27T20:40:14.393Z,95.10
2019-04-27T20:42:44.204Z,95.10
2019-04-27T20:45:14.364Z,94.70
2019-04-27T20:47:44.234Z,94.60
2019-04-27T20:50:14.619Z,95.10
2019-04-27T20:52:55.357Z,94.90
2019-04-27T20:55:25.478Z,95.70
2019-04-27T20:58:01.598Z,96.20
2019-04-27T21:00:27.364Z,96.10
2019-04-27T21:03:01.956Z,95.50
2019-04-27T21:05:40.882Z,95.60
2019-04-27T21:08:11.735Z,95.00
2019-04-27T21:10:41.663Z,95.50
2019-04-27T21:13:11.779Z,95.40
2019-04-27T21:15:42.017Z,95.10
2019-04-27T21:18:12.432Z,95.30
2019-04-27T21:20:42.797Z,95.30
2019-04-27T21:23:12.714Z,95.60
2019-04-27T21:25:42.748Z,95.70
2019-04-27T21:28:18.445Z,95.40
2019-04-27T21:30:44.015Z,95.10
2019-04-27T21:33:14.065Z,95.50
2019-04-27T21:35:45.478Z,95.80
2019-04-27T21:38:15.238Z,96.00
2019-04-27T21:40:45.290Z,95.70
2019-04-27T21:43:21.455Z,95.60
2019-04-27T21:45:51.665Z,95.80
2019-04-27T21:48:21.523Z,95.40
2019-04-27T21:50:51.827Z,95.20
2019-04-27T21:53:51.241Z,95.40
2019-04-27T21:56:21.558Z,95.60
2019-04-27T21:58:51.325Z,95.40
2019-04-27T22:01:33.739Z,95.70
2019-04-27T22:04:05.769Z,95.40
2019-04-27T22:06:35.985Z,95.30
2019-04-27T22:09:10.832Z,95.20
2019-04-27T22:11:42.355Z,95.40
2019-04-27T22:14:12.220Z,94.80
2019-04-27T22:16:42.740Z,95.40
2019-04-27T22:19:13.007Z,95.90
2019-04-27T22:21:42.937Z,95.50
2019-04-27T22:24:37.709Z,96.10
2019-04-27T22:27:08.312Z,95.70
2019-04-27T22:29:38.237Z,95.50
2019-04-27T22:32:08.977Z,95.70
2019-04-27T22:34:38.885Z,95.70
2019-04-27T22:37:11.084Z,95.30
2019-04-27T22:40:01.050Z,95.00
2019-04-27T22:42:44.820Z,95.40
2019-04-27T22:45:18.899Z,95.20
2019-04-27T22:47:48.751Z,95.00
2019-04-27T22:50:18.796Z,95.30
2019-04-27T22:52:48.791Z,95.60
2019-04-27T22:55:18.547Z,95.80
2019-04-27T22:57:56.895Z,95.20
2019-04-27T23:01:01.336Z,95.50
2019-04-27T23:03:34.023Z,95.40
2019-04-27T23:06:03.968Z,95.50
2019-04-27T23:08:33.901Z,95.30
2019-04-27T23:11:04.389Z,95.40
2019-04-27T23:13:34.204Z,95.20
2019-04-27T23:16:06.203Z,95.10
2019-04-27T23:18:36.033Z,95.20
2019-04-27T23:21:06.177Z,95.10
2019-04-27T23:23:35.924Z,95.20
2019-04-27T23:26:05.933Z,95.60
2019-04-27T23:28:35.961Z,95.40
2019-04-27T23:31:28.174Z,95.60
2019-04-27T23:33:58.549Z,95.70
2019-04-27T23:36:28.361Z,96.00
2019-04-27T23:38:58.093Z,96.00
2019-04-27T23:41:28.988Z,96.10
2019-04-27T23:43:59.155Z,96.20
2019-04-27T23:46:28.957Z,96.20
2019-04-27T23:48:58.680Z,96.40
2019-04-27T23:51:59.879Z,96.40
2019-04-27T23:54:29.640Z,95.70
2019-04-27T23:56:59.537Z,96.40
2019-04-27T23:59:29.284Z,96.60
